createdAt,value
2018-08-25T00:00:17.528Z,2.40
2018-08-25T00:02:45.894Z,2.27
2018-08-25T00:05:14.245Z,2.67
2018-08-25T00:07:42.640Z,2.43
2018-08-25T00:10:11.040Z,2.10
2018-08-25T00:12:39.483Z,2.47
2018-08-25T00:15:08.140Z,2.40
2018-08-25T00:17:36.514Z,2.80
2018-08-25T00:20:04.898Z,2.20
2018-08-25T00:22:33.466Z,2.50
2018-08-25T00:25:02.060Z,2.37
2018-08-25T00:27:30.394Z,2.50
2018-08-25T00:29:58.744Z,2.67
2018-08-25T00:32:27.148Z,2.90
2018-08-25T00:34:55.515Z,2.50
2018-08-25T00:37:23.861Z,2.27
2018-08-25T00:39:52.202Z,2.40
2018-08-25T00:42:20.548Z,2.17
2018-08-25T00:44:48.892Z,2.40
2018-08-25T00:47:17.240Z,2.30
2018-08-25T00:49:45.568Z,2.10
2018-08-25T00:52:13.946Z,2.27
2018-08-25T00:54:42.330Z,2.37
2018-08-25T00:57:10.660Z,2.20
2018-08-25T00:59:39.015Z,2.07
2018-08-25T01:02:07.380Z,2.30
2018-08-25T01:04:35.719Z,2.50
2018-08-25T01:07:04.071Z,2.37
2018-08-25T01:09:32.429Z,2.03
2018-08-25T01:12:00.808Z,2.20
2018-08-25T01:14:29.204Z,2.27
2018-08-25T01:16:57.584Z,2.60
2018-08-25T01:19:25.935Z,2.33
2018-08-25T01:21:54.287Z,2.70
2018-08-25T01:24:22.924Z,2.57
2018-08-25T01:26:51.337Z,2.40
2018-08-25T01:29:19.684Z,2.20
2018-08-25T01:31:48.031Z,2.70
2018-08-25T01:34:16.387Z,2.60
2018-08-25T01:36:44.752Z,2.23
2018-08-25T01:39:13.112Z,3.13
2018-08-25T01:41:41.444Z,3.07
2018-08-25T01:44:09.818Z,2.40
2018-08-25T01:46:38.204Z,2.90
2018-08-25T01:49:06.566Z,2.80
2018-08-25T01:51:34.903Z,2.60
2018-08-25T01:54:03.272Z,2.63
2018-08-25T01:56:31.615Z,2.50
2018-08-25T01:59:00.040Z,2.60
2018-08-25T02:01:28.369Z,2.70
2018-08-25T02:03:56.756Z,2.83
2018-08-25T02:06:25.135Z,2.43
2018-08-25T02:08:53.488Z,2.80
2018-08-25T02:11:21.852Z,2.57
2018-08-25T02:13:50.202Z,2.90
2018-08-25T02:16:18.530Z,2.90
2018-08-25T02:18:46.886Z,2.90
2018-08-25T02:21:15.267Z,2.90
2018-08-25T02:23:43.671Z,3.00
2018-08-25T02:26:11.999Z,3.13
2018-08-25T02:28:40.339Z,2.77
2018-08-25T02:31:08.717Z,2.70
2018-08-25T02:33:37.100Z,2.97
2018-08-25T02:36:05.463Z,2.70
2018-08-25T02:38:33.802Z,3.37
2018-08-25T02:41:02.168Z,3.00
2018-08-25T02:43:30.513Z,3.30
2018-08-25T02:45:58.836Z,3.17
2018-08-25T02:48:27.216Z,3.63
2018-08-25T02:50:55.580Z,3.53
2018-08-25T02:53:23.922Z,3.60
2018-08-25T02:55:52.265Z,3.33
2018-08-25T02:58:20.615Z,3.67
2018-08-25T03:00:48.959Z,3.83
2018-08-25T03:03:17.271Z,3.97
2018-08-25T03:05:45.618Z,3.60
2018-08-25T03:08:14.083Z,3.57
2018-08-25T03:10:42.446Z,3.73
2018-08-25T03:13:10.788Z,3.70
2018-08-25T03:15:39.130Z,3.90
2018-08-25T03:18:07.457Z,3.60
2018-08-25T03:20:35.823Z,3.97
2018-08-25T03:23:04.174Z,3.50
2018-08-25T03:25:32.521Z,3.53
2018-08-25T03:28:01.099Z,3.77
2018-08-25T03:30:29.446Z,3.33
2018-08-25T03:32:57.788Z,3.30
2018-08-25T03:35:26.159Z,4.20
2018-08-25T03:37:54.492Z,3.37
2018-08-25T03:40:22.856Z,3.57
2018-08-25T03:42:51.232Z,3.67
2018-08-25T03:45:19.582Z,3.80
2018-08-25T03:47:47.943Z,3.83
2018-08-25T03:50:16.307Z,3.50
2018-08-25T03:52:44.657Z,3.43
2018-08-25T03:55:13.022Z,3.27
2018-08-25T03:57:41.377Z,3.50
2018-08-25T04:00:10.130Z,3.20
2018-08-25T04:02:38.474Z,3.50
2018-08-25T04:05:06.982Z,3.20
2018-08-25T04:07:35.337Z,3.43
2018-08-25T04:10:03.720Z,3.50
2018-08-25T04:12:32.058Z,3.47
2018-08-25T04:15:00.958Z,3.23
2018-08-25T04:17:29.200Z,3.00
2018-08-25T04:19:57.560Z,3.10
2018-08-25T04:22:25.924Z,3.73
2018-08-25T04:24:54.298Z,3.10
2018-08-25T04:27:22.643Z,2.87
2018-08-25T04:29:51.018Z,3.10
2018-08-25T04:32:19.391Z,3.07
2018-08-25T04:34:47.748Z,2.90
2018-08-25T04:37:16.091Z,3.20
2018-08-25T04:39:44.472Z,3.20
2018-08-25T04:42:12.790Z,3.67
2018-08-25T04:44:41.159Z,4.57
2018-08-25T04:47:09.558Z,4.03
2018-08-25T04:49:37.888Z,4.33
2018-08-25T04:52:06.362Z,4.50
2018-08-25T04:54:34.700Z,4.13
2018-08-25T04:57:03.021Z,5.00
2018-08-25T04:59:31.378Z,7.50
2018-08-25T05:01:59.805Z,7.17
2018-08-25T05:04:28.119Z,12.43
2018-08-25T05:06:56.469Z,13.63
2018-08-25T05:09:24.829Z,15.17
2018-08-25T05:11:53.155Z,14.40
2018-08-25T05:14:21.504Z,14.10
2018-08-25T05:16:49.849Z,13.90
2018-08-25T05:19:18.192Z,16.80
2018-08-25T05:21:46.549Z,32.97
2018-08-25T05:24:14.888Z,19.97
2018-08-25T05:26:43.220Z,18.33
2018-08-25T05:29:11.607Z,19.10
2018-08-25T05:31:39.959Z,21.73
2018-08-25T05:34:08.297Z,23.57
2018-08-25T05:36:36.645Z,24.77
2018-08-25T05:39:07.552Z,25.63
2018-08-25T05:41:35.965Z,25.00
2018-08-25T05:44:04.964Z,44.50
2018-08-25T05:46:33.333Z,25.77
2018-08-25T05:49:02.091Z,27.23
2018-08-25T05:51:30.435Z,28.17
2018-08-25T05:53:58.812Z,25.27
2018-08-25T05:56:27.571Z,28.87
2018-08-25T05:58:55.939Z,25.70
2018-08-25T06:01:24.259Z,24.80
2018-08-25T06:03:52.614Z,27.27
2018-08-25T06:06:20.952Z,25.03
2018-08-25T06:08:49.293Z,24.10
2018-08-25T06:11:17.636Z,24.70
2018-08-25T06:13:45.984Z,24.03
2018-08-25T06:16:14.355Z,24.33
2018-08-25T06:18:42.691Z,22.43
2018-08-25T06:21:11.087Z,22.90
2018-08-25T06:23:39.434Z,23.73
2018-08-25T06:26:07.796Z,23.27
2018-08-25T06:28:36.147Z,22.70
2018-08-25T06:31:05.202Z,24.53
2018-08-25T06:33:33.528Z,21.53
2018-08-25T06:36:02.005Z,21.07
2018-08-25T06:38:30.329Z,21.33
2018-08-25T06:40:58.668Z,22.50
2018-08-25T06:43:27.043Z,22.43
2018-08-25T06:46:00.680Z,21.07
2018-08-25T06:48:29.047Z,22.47
2018-08-25T06:50:57.472Z,20.20
2018-08-25T06:53:25.878Z,20.03
2018-08-25T06:55:54.199Z,19.20
2018-08-25T06:58:22.580Z,18.93
2018-08-25T07:00:51.537Z,18.10
2018-08-25T07:03:20.042Z,19.47
2018-08-25T07:05:48.409Z,18.97
2018-08-25T07:08:16.772Z,18.77
2018-08-25T07:10:45.224Z,19.20
2018-08-25T07:13:13.650Z,18.33
2018-08-25T07:15:42.047Z,19.27
2018-08-25T07:18:10.798Z,17.63
2018-08-25T07:20:39.171Z,19.23
2018-08-25T07:23:07.553Z,19.03
2018-08-25T07:25:36.147Z,17.57
2018-08-25T07:28:04.539Z,18.63
2018-08-25T07:30:33.024Z,18.87
2018-08-25T07:33:01.583Z,19.40
2018-08-25T07:35:30.038Z,21.43
2018-08-25T07:37:58.460Z,20.37
2018-08-25T07:40:26.823Z,19.77
2018-08-25T07:42:55.189Z,21.03
2018-08-25T07:45:23.963Z,23.80
2018-08-25T07:47:52.549Z,23.17
2018-08-25T07:50:21.003Z,24.50
2018-08-25T07:52:49.404Z,24.97
2018-08-25T07:55:17.747Z,25.60
2018-08-25T07:57:46.180Z,26.67
2018-08-25T08:00:14.536Z,26.47
2018-08-25T08:02:42.925Z,27.37
2018-08-25T08:05:11.275Z,27.93
2018-08-25T08:07:39.664Z,29.47
2018-08-25T08:10:08.058Z,29.07
2018-08-25T08:12:36.437Z,30.43
2018-08-25T08:15:04.820Z,31.43
2018-08-25T08:17:33.195Z,31.90
2018-08-25T08:20:01.552Z,30.43
2018-08-25T08:22:29.955Z,33.47
2018-08-25T08:24:58.360Z,34.87
2018-08-25T08:27:26.770Z,30.47
2018-08-25T08:29:58.843Z,31.53
2018-08-25T08:32:27.402Z,31.17
2018-08-25T08:34:55.814Z,26.43
2018-08-25T08:37:24.245Z,22.03
2018-08-25T08:39:52.649Z,16.97
2018-08-25T08:42:21.180Z,19.73
2018-08-25T08:44:49.523Z,18.80
2018-08-25T08:47:18.083Z,14.00
2018-08-25T08:49:46.908Z,12.47
2018-08-25T08:52:14.805Z,13.15
2018-08-25T08:54:43.174Z,13.60
2018-08-25T08:57:11.563Z,12.58
2018-08-25T08:59:39.949Z,11.50
2018-08-25T09:02:08.343Z,9.18
2018-08-25T09:04:36.692Z,9.63
2018-08-25T09:07:05.222Z,9.80
2018-08-25T09:09:33.654Z,10.55
2018-08-25T09:12:02.345Z,9.28
2018-08-25T09:14:31.594Z,9.18
2018-08-25T09:16:59.992Z,8.83
2018-08-25T09:19:28.662Z,8.10
2018-08-25T09:21:57.695Z,8.40
2018-08-25T09:24:26.112Z,8.73
2018-08-25T09:26:54.489Z,9.18
2018-08-25T09:29:22.855Z,6.75
2018-08-25T09:31:51.274Z,6.10
2018-08-25T09:34:20.172Z,6.92
2018-08-25T09:36:48.724Z,5.70
2018-08-25T09:39:16.968Z,5.70
2018-08-25T09:41:45.390Z,6.15
2018-08-25T09:44:13.737Z,5.90
2018-08-25T09:46:42.108Z,6.75
2018-08-25T09:49:10.451Z,7.35
2018-08-25T09:51:38.832Z,7.03
2018-08-25T09:54:07.244Z,7.33
2018-08-25T09:56:35.590Z,6.95
2018-08-25T09:59:04.038Z,7.62
2018-08-25T10:01:33.259Z,7.10
2018-08-25T10:04:02.055Z,6.92
2018-08-25T10:06:30.416Z,6.87
2018-08-25T10:08:59.352Z,6.62
2018-08-25T10:11:27.707Z,6.50
2018-08-25T10:13:56.192Z,6.20
2018-08-25T10:16:24.624Z,6.05
2018-08-25T10:18:52.979Z,6.22
2018-08-25T10:21:21.361Z,6.22
2018-08-25T10:23:49.706Z,6.60
2018-08-25T10:26:18.087Z,5.53
2018-08-25T10:28:46.464Z,4.70
2018-08-25T10:31:14.840Z,4.65
2018-08-25T10:33:43.200Z,4.42
2018-08-25T10:36:11.568Z,3.92
2018-08-25T10:38:39.912Z,4.12
2018-08-25T10:41:08.322Z,4.17
2018-08-25T10:43:37.127Z,3.73
2018-08-25T10:46:05.515Z,3.90
2018-08-25T10:48:33.894Z,3.80
2018-08-25T10:51:02.284Z,4.50
2018-08-25T10:53:30.741Z,8.00
2018-08-25T10:55:59.114Z,4.10
2018-08-25T10:58:27.460Z,2.83
2018-08-25T11:00:55.889Z,3.63
2018-08-25T11:03:24.247Z,2.60
2018-08-25T11:05:52.627Z,3.17
2018-08-25T11:08:21.010Z,2.97
2018-08-25T11:10:49.408Z,2.57
2018-08-25T11:13:17.803Z,2.50
2018-08-25T11:15:46.172Z,2.47
2018-08-25T11:18:14.602Z,2.73
2018-08-25T11:20:43.106Z,2.70
2018-08-25T11:23:11.998Z,2.50
2018-08-25T11:25:41.453Z,2.40
2018-08-25T11:28:09.876Z,4.30
2018-08-25T11:30:38.367Z,2.97
2018-08-25T11:33:07.469Z,2.80
2018-08-25T11:35:35.847Z,2.20
2018-08-25T11:38:04.225Z,3.07
2018-08-25T11:40:32.626Z,3.37
2018-08-25T11:43:01.005Z,2.77
2018-08-25T11:45:29.428Z,3.20
2018-08-25T11:47:57.793Z,2.00
2018-08-25T11:50:26.184Z,1.93
2018-08-25T11:52:54.548Z,1.73
2018-08-25T11:55:22.967Z,1.93
2018-08-25T11:57:51.622Z,1.60
2018-08-25T12:00:20.057Z,1.50
2018-08-25T12:02:49.183Z,1.83
2018-08-25T12:05:17.580Z,1.70
2018-08-25T12:07:45.916Z,4.23
2018-08-25T12:10:14.339Z,2.73
2018-08-25T12:12:42.680Z,1.93
2018-08-25T12:15:11.337Z,1.80
2018-08-25T12:17:39.814Z,2.40
2018-08-25T12:20:08.212Z,3.00
2018-08-25T12:22:36.645Z,3.13
2018-08-25T12:25:05.263Z,3.40
2018-08-25T12:27:34.456Z,2.10
2018-08-25T12:30:02.896Z,2.17
2018-08-25T12:32:31.287Z,1.70
2018-08-25T12:35:00.174Z,1.80
2018-08-25T12:37:28.622Z,3.10
2018-08-25T12:39:57.003Z,3.20
2018-08-25T12:42:25.417Z,3.47
2018-08-25T12:44:53.894Z,3.67
2018-08-25T12:47:26.440Z,3.70
2018-08-25T12:49:56.251Z,2.73
2018-08-25T12:52:24.666Z,2.70
2018-08-25T12:54:53.048Z,2.20
2018-08-25T12:57:21.900Z,1.80
2018-08-25T12:59:50.352Z,1.63
2018-08-25T13:02:18.748Z,1.87
2018-08-25T13:04:47.675Z,3.13
2018-08-25T13:07:16.248Z,1.97
2018-08-25T13:09:45.711Z,2.00
2018-08-25T13:12:14.424Z,2.40
2018-08-25T13:14:43.357Z,2.30
2018-08-25T13:17:11.735Z,2.27
2018-08-25T13:19:40.075Z,2.20
2018-08-25T13:22:08.975Z,2.10
2018-08-25T13:24:37.387Z,2.53
2018-08-25T13:27:06.350Z,2.60
2018-08-25T13:29:34.758Z,2.67
2018-08-25T13:32:03.787Z,2.53
2018-08-25T13:34:32.700Z,3.00
2018-08-25T13:37:01.084Z,2.57
2018-08-25T13:39:29.500Z,2.20
2018-08-25T13:41:58.032Z,2.33
2018-08-25T13:44:26.467Z,2.40
2018-08-25T13:46:54.802Z,2.10
2018-08-25T13:49:23.182Z,2.60
2018-08-25T13:51:51.559Z,2.90
2018-08-25T13:54:20.015Z,2.50
2018-08-25T13:56:48.916Z,2.47
2018-08-25T13:59:17.353Z,2.30
2018-08-25T14:01:46.286Z,2.10
2018-08-25T14:04:14.862Z,2.10
2018-08-25T14:06:43.272Z,2.30
2018-08-25T14:09:11.761Z,2.23
2018-08-25T14:11:40.380Z,1.80
2018-08-25T14:14:08.753Z,1.80
2018-08-25T14:16:37.142Z,2.20
2018-08-25T14:19:05.526Z,1.90
2018-08-25T14:21:34.140Z,1.70
2018-08-25T14:24:02.583Z,1.80
2018-08-25T14:26:31.200Z,1.80
2018-08-25T14:28:59.722Z,2.47
2018-08-25T14:31:28.182Z,2.00
2018-08-25T14:33:56.567Z,1.77
2018-08-25T14:36:24.982Z,2.00
2018-08-25T14:38:54.019Z,2.07
2018-08-25T14:41:22.802Z,1.73
2018-08-25T14:43:51.280Z,1.80
2018-08-25T14:46:19.634Z,1.57
2018-08-25T14:48:48.520Z,1.73
2018-08-25T14:51:16.904Z,1.70
2018-08-25T14:53:46.081Z,1.53
2018-08-25T14:56:14.519Z,1.50
2018-08-25T14:58:43.407Z,1.70
2018-08-25T15:01:11.896Z,1.40
2018-08-25T15:03:40.369Z,1.47
2018-08-25T15:06:09.288Z,1.87
2018-08-25T15:08:37.741Z,1.30
2018-08-25T15:11:07.148Z,1.33
2018-08-25T15:13:35.692Z,1.23
2018-08-25T15:16:04.061Z,1.20
2018-08-25T15:18:32.506Z,1.37
2018-08-25T15:21:01.480Z,1.47
2018-08-25T15:23:30.084Z,1.10
2018-08-25T15:25:58.546Z,1.30
2018-08-25T15:28:26.957Z,1.33
2018-08-25T15:30:55.509Z,1.10
2018-08-25T15:33:23.989Z,0.90
2018-08-25T15:35:52.432Z,1.53
2018-08-25T15:38:20.846Z,1.10
2018-08-25T15:40:49.844Z,0.87
2018-08-25T15:43:18.835Z,0.77
2018-08-25T15:45:47.282Z,3.27
2018-08-25T15:48:15.798Z,1.60
2018-08-25T15:50:44.248Z,0.87
2018-08-25T15:53:12.727Z,3.20
2018-08-25T15:55:41.650Z,1.70
2018-08-25T15:58:10.034Z,1.93
2018-08-25T16:00:38.430Z,0.90
2018-08-25T16:03:06.847Z,0.87
2018-08-25T16:05:37.763Z,0.97
2018-08-25T16:08:07.439Z,1.10
2018-08-25T16:10:35.844Z,0.80
2018-08-25T16:13:05.429Z,0.90
2018-08-25T16:15:33.814Z,0.80
2018-08-25T16:18:02.212Z,0.90
2018-08-25T16:20:30.630Z,0.80
2018-08-25T16:22:59.050Z,1.70
2018-08-25T16:25:27.520Z,3.47
2018-08-25T16:27:55.929Z,1.20
2018-08-25T16:30:24.864Z,0.90
2018-08-25T16:32:53.782Z,1.00
2018-08-25T16:35:22.176Z,1.60
2018-08-25T16:37:50.591Z,5.07
2018-08-25T16:40:19.049Z,2.40
2018-08-25T16:42:47.629Z,1.80
2018-08-25T16:45:16.345Z,1.00
2018-08-25T16:47:44.775Z,0.90
2018-08-25T16:50:13.773Z,1.30
2018-08-25T16:52:42.171Z,1.30
2018-08-25T16:55:10.625Z,1.20
2018-08-25T16:57:39.008Z,1.30
2018-08-25T17:00:07.765Z,1.50
2018-08-25T17:02:37.373Z,2.03
2018-08-25T17:05:05.849Z,1.73
2018-08-25T17:07:34.802Z,1.60
2018-08-25T17:10:03.284Z,2.60
2018-08-25T17:12:31.746Z,3.03
2018-08-25T17:15:00.434Z,2.90
2018-08-25T17:17:28.912Z,3.03
2018-08-25T17:19:57.321Z,3.73
2018-08-25T17:22:25.769Z,2.90
2018-08-25T17:24:54.110Z,3.70
2018-08-25T17:27:22.525Z,3.10
2018-08-25T17:29:51.806Z,3.10
2018-08-25T17:32:20.313Z,4.43
2018-08-25T17:34:48.724Z,8.70
2018-08-25T17:37:17.131Z,3.83
2018-08-25T17:39:45.681Z,2.60
2018-08-25T17:42:14.092Z,2.43
2018-08-25T17:44:43.029Z,2.60
2018-08-25T17:47:11.532Z,2.10
2018-08-25T17:49:39.991Z,2.53
2018-08-25T17:52:08.412Z,2.00
2018-08-25T17:54:36.856Z,2.10
2018-08-25T17:57:05.300Z,1.90
2018-08-25T17:59:33.712Z,1.87
2018-08-25T18:02:02.191Z,1.53
2018-08-25T18:04:30.631Z,8.40
2018-08-25T18:06:59.032Z,3.60
2018-08-25T18:09:27.601Z,1.60
2018-08-25T18:11:55.970Z,1.47
2018-08-25T18:14:24.393Z,1.30
2018-08-25T18:16:52.772Z,1.30
2018-08-25T18:19:21.243Z,1.17
2018-08-25T18:21:49.613Z,1.50
2018-08-25T18:24:18.961Z,1.30
2018-08-25T18:26:47.414Z,1.60
2018-08-25T18:29:15.815Z,1.50
2018-08-25T18:31:44.265Z,1.60
2018-08-25T18:34:12.653Z,1.53
2018-08-25T18:36:41.054Z,1.53
2018-08-25T18:39:11.796Z,1.33
2018-08-25T18:41:40.221Z,1.40
2018-08-25T18:44:08.590Z,1.60
2018-08-25T18:46:36.967Z,1.30
2018-08-25T18:49:05.381Z,1.57
2018-08-25T18:51:33.722Z,1.33
2018-08-25T18:54:02.123Z,1.60
2018-08-25T18:56:30.487Z,1.87
2018-08-25T18:58:59.028Z,1.33
2018-08-25T19:01:27.504Z,1.20
2018-08-25T19:03:55.867Z,1.50
2018-08-25T19:06:24.234Z,1.20
2018-08-25T19:08:52.585Z,1.30
2018-08-25T19:11:21.260Z,1.67
2018-08-25T19:13:49.954Z,1.27
2018-08-25T19:16:18.384Z,1.57
2018-08-25T19:18:46.816Z,1.70
2018-08-25T19:21:15.605Z,1.47
2018-08-25T19:23:44.029Z,3.40
2018-08-25T19:26:12.388Z,12.80
2018-08-25T19:28:40.804Z,4.53
2018-08-25T19:31:09.322Z,4.20
2018-08-25T19:33:37.783Z,2.40
2018-08-25T19:36:06.143Z,2.10
2018-08-25T19:38:34.612Z,2.20
2018-08-25T19:41:03.049Z,1.80
2018-08-25T19:43:31.547Z,1.80
2018-08-25T19:45:59.937Z,1.40
2018-08-25T19:48:28.316Z,1.40
2018-08-25T19:50:56.684Z,3.60
2018-08-25T19:53:25.165Z,4.70
2018-08-25T19:55:53.555Z,5.00
2018-08-25T19:58:21.933Z,3.20
2018-08-25T20:00:50.306Z,1.60
2018-08-25T20:03:18.739Z,1.43
2018-08-25T20:05:47.197Z,1.03
2018-08-25T20:08:15.560Z,1.40
2018-08-25T20:10:43.921Z,1.90
2018-08-25T20:13:12.270Z,3.20
2018-08-25T20:15:40.867Z,8.27
2018-08-25T20:18:09.366Z,3.20
2018-08-25T20:20:37.870Z,2.70
2018-08-25T20:23:06.477Z,3.10
2018-08-25T20:25:34.945Z,1.30
2018-08-25T20:28:03.551Z,1.00
2018-08-25T20:30:31.993Z,1.00
2018-08-25T20:33:00.411Z,1.10
2018-08-25T20:35:28.848Z,1.33
2018-08-25T20:37:59.108Z,1.27
2018-08-25T20:40:27.553Z,2.17
2018-08-25T20:42:56.054Z,3.77
2018-08-25T20:45:24.472Z,7.27
2018-08-25T20:47:52.895Z,2.60
2018-08-25T20:50:21.273Z,1.50
2018-08-25T20:52:49.756Z,1.33
2018-08-25T20:55:18.124Z,1.60
2018-08-25T20:57:46.501Z,1.80
2018-08-25T21:00:14.866Z,1.50
2018-08-25T21:02:43.260Z,1.30
2018-08-25T21:05:11.650Z,1.40
2018-08-25T21:07:39.992Z,1.20
2018-08-25T21:10:08.767Z,1.00
2018-08-25T21:12:38.902Z,1.10
2018-08-25T21:15:07.656Z,0.90
2018-08-25T21:17:36.156Z,0.90
2018-08-25T21:20:04.550Z,1.00
2018-08-25T21:22:32.913Z,0.83
2018-08-25T21:25:01.281Z,1.00
2018-08-25T21:27:29.655Z,1.13
2018-08-25T21:36:58.276Z,4.33
2018-08-25T21:39:26.639Z,2.93
2018-08-25T21:41:55.023Z,1.50
2018-08-25T21:44:23.391Z,1.30
2018-08-25T21:46:51.817Z,3.07
2018-08-25T21:49:20.226Z,2.70
2018-08-25T21:51:48.576Z,1.00
2018-08-25T21:54:17.048Z,0.80
2018-08-25T21:56:45.413Z,1.00
2018-08-25T21:59:13.802Z,0.80
2018-08-25T22:01:42.973Z,0.90
2018-08-25T22:04:12.527Z,1.00
2018-08-25T22:06:40.930Z,0.90
2018-08-25T22:09:11.452Z,0.83
2018-08-25T22:11:40.036Z,0.90
2018-08-25T22:14:08.375Z,0.80
2018-08-25T22:16:36.756Z,0.93
2018-08-25T22:19:05.441Z,0.80
2018-08-25T22:21:33.870Z,1.27
2018-08-25T22:24:02.278Z,0.70
2018-08-25T22:26:30.639Z,0.83
2018-08-25T22:28:59.052Z,0.80
2018-08-25T22:31:27.436Z,0.90
2018-08-25T22:33:55.814Z,1.00
2018-08-25T22:36:24.207Z,0.80
2018-08-25T22:38:52.570Z,1.00
2018-08-25T22:41:21.301Z,0.90
2018-08-25T22:43:49.691Z,0.87
2018-08-25T22:46:18.092Z,0.90
2018-08-25T22:48:46.575Z,0.70
2018-08-25T22:51:15.032Z,0.90
2018-08-25T22:53:43.918Z,0.83
2018-08-25T22:56:12.261Z,1.10
2018-08-25T22:58:40.815Z,1.10
2018-08-25T23:01:09.227Z,0.90
2018-08-25T23:03:37.626Z,0.80
2018-08-25T23:06:06.312Z,0.87
2018-08-25T23:08:34.793Z,0.80
2018-08-25T23:11:03.836Z,0.97
2018-08-25T23:13:32.236Z,0.83
2018-08-25T23:16:00.624Z,1.00
2018-08-25T23:18:29.023Z,0.93
2018-08-25T23:20:57.934Z,0.70
2018-08-25T23:23:26.290Z,0.80
2018-08-25T23:25:54.782Z,0.80
2018-08-25T23:28:23.137Z,0.90
2018-08-25T23:30:52.045Z,0.80
2018-08-25T23:33:21.161Z,0.80
2018-08-25T23:35:49.524Z,0.80
2018-08-25T23:38:17.950Z,0.87
2018-08-25T23:40:46.346Z,0.90
2018-08-25T23:43:14.712Z,0.90
2018-08-25T23:45:43.436Z,1.10
2018-08-25T23:48:11.877Z,1.20
2018-08-25T23:50:40.175Z,1.00
2018-08-25T23:53:08.514Z,1.00
2018-08-25T23:55:36.851Z,0.90
2018-08-25T23:58:05.236Z,1.00
